createdAt,value
2023-01-25T00:00:42.899Z,-2.3
2023-01-25T00:05:42.555Z,-2.4
2023-01-25T00:10:42.168Z,-2.4
2023-01-25T00:15:41.791Z,-2.5
2023-01-25T00:20:41.437Z,-2.5
2023-01-25T00:25:41.024Z,-2.4
2023-01-25T00:30:40.686Z,-2.5
2023-01-25T00:35:40.263Z,-2.5
2023-01-25T00:40:39.993Z,-2.4
2023-01-25T00:45:39.561Z,-2.6
2023-01-25T00:50:39.242Z,-2.6
2023-01-25T00:55:38.827Z,-2.7
2023-01-25T01:00:38.452Z,-2.8
2023-01-25T01:05:38.132Z,-2.8
2023-01-25T01:10:37.728Z,-2.8
2023-01-25T01:15:37.371Z,-2.8
2023-01-25T01:20:39.499Z,-2.8
2023-01-25T01:25:36.629Z,-2.8
2023-01-25T01:30:36.260Z,-2.8
2023-01-25T01:35:35.983Z,-2.9
2023-01-25T01:40:35.568Z,-2.9
2023-01-25T01:45:35.224Z,-3.1
2023-01-25T01:50:34.820Z,-3.1
2023-01-25T01:55:38.463Z,-3.1
2023-01-25T02:00:34.174Z,-3.0
2023-01-25T02:05:34.402Z,-3.0
2023-01-25T02:10:33.371Z,-2.9
2023-01-25T02:15:33.064Z,-2.8
2023-01-25T02:20:32.670Z,-2.8
2023-01-25T02:25:32.283Z,-2.7
2023-01-25T02:30:31.931Z,-2.5
2023-01-25T02:35:31.569Z,-2.4
2023-01-25T02:40:31.279Z,-2.2
2023-01-25T02:45:32.907Z,-2.1
2023-01-25T02:50:30.719Z,-2.0
2023-01-25T02:55:30.172Z,-1.9
2023-01-25T03:00:29.807Z,-1.8
2023-01-25T03:05:29.539Z,-1.6
2023-01-25T03:10:29.186Z,-1.4
2023-01-25T03:15:30.857Z,-1.2
2023-01-25T03:20:28.530Z,-1.2
2023-01-25T03:25:28.182Z,-1.2
2023-01-25T03:30:27.858Z,-1.1
2023-01-25T03:35:27.558Z,-1.1
2023-01-25T03:40:27.274Z,-1.2
2023-01-25T03:45:26.891Z,-1.3
2023-01-25T03:50:26.552Z,-1.2
2023-01-25T03:55:26.216Z,-1.2
2023-01-25T04:05:25.564Z,-0.9
2023-01-25T04:10:25.270Z,-0.9
2023-01-25T04:15:28.921Z,-0.8
2023-01-25T04:20:24.751Z,-0.7
2023-01-25T04:25:24.373Z,-0.7
2023-01-25T04:30:24.096Z,-0.8
2023-01-25T04:35:23.813Z,-0.8
2023-01-25T04:40:23.484Z,-0.6
2023-01-25T04:45:23.068Z,-0.6
2023-01-25T04:50:22.757Z,-0.6
2023-01-25T05:00:22.075Z,-0.5
2023-01-25T05:05:21.765Z,-0.5
2023-01-25T05:10:21.474Z,-0.4
2023-01-25T05:15:21.104Z,-0.4
2023-01-25T05:20:20.811Z,-0.5
2023-01-25T05:25:20.478Z,-0.5
2023-01-25T05:35:19.884Z,-0.6
2023-01-25T05:40:19.572Z,-0.7
2023-01-25T05:45:19.196Z,-0.9
2023-01-25T05:55:18.542Z,-1.1
2023-01-25T06:00:18.197Z,-1.0
2023-01-25T06:05:17.861Z,-0.9
2023-01-25T06:10:17.557Z,-0.9
2023-01-25T06:15:17.170Z,-1.1
2023-01-25T06:20:16.839Z,-1.0
2023-01-25T06:25:16.468Z,-0.9
2023-01-25T06:30:16.125Z,-0.8
2023-01-25T06:35:15.802Z,-0.8
2023-01-25T06:40:15.421Z,-1.0
2023-01-25T06:45:16.641Z,-1.2
2023-01-25T06:50:14.707Z,-1.1
2023-01-25T06:55:14.369Z,-1.1
2023-01-25T07:00:14.097Z,-0.9
2023-01-25T07:05:13.717Z,-0.9
2023-01-25T07:10:15.408Z,-0.8
2023-01-25T07:15:13.062Z,-0.9
2023-01-25T07:20:13.750Z,-0.9
2023-01-25T07:25:15.715Z,-0.8
2023-01-25T07:30:12.077Z,-0.9
2023-01-25T07:35:11.889Z,-0.9
2023-01-25T07:40:11.452Z,-0.6
2023-01-25T07:45:11.550Z,-0.7
2023-01-25T07:50:10.808Z,-0.9
2023-01-25T07:55:10.701Z,-0.9
2023-01-25T08:00:10.126Z,-0.9
2023-01-25T08:05:10.140Z,-0.7
2023-01-25T08:10:09.491Z,-0.6
2023-01-25T08:15:09.406Z,-0.6
2023-01-25T08:20:08.800Z,-0.5
2023-01-25T08:25:08.804Z,-0.4
2023-01-25T08:30:08.107Z,-0.3
2023-01-25T08:35:10.947Z,-0.3
2023-01-25T08:40:07.947Z,-0.2
2023-01-25T08:45:09.551Z,-0.2
2023-01-25T08:50:07.406Z,-0.1
2023-01-25T08:55:06.487Z,-0.1
2023-01-25T09:00:06.540Z,0.0
2023-01-25T09:05:08.369Z,0.2
2023-01-25T09:10:05.550Z,0.3
2023-01-25T09:15:05.213Z,0.5
2023-01-25T09:20:04.902Z,0.6
2023-01-25T09:25:04.558Z,0.7
2023-01-25T09:30:04.448Z,0.9
2023-01-25T09:35:03.981Z,1.1
2023-01-25T09:40:03.732Z,1.1
2023-01-25T09:45:03.481Z,1.2
2023-01-25T09:50:03.261Z,1.2
2023-01-25T09:55:04.920Z,1.4
2023-01-25T10:00:03.252Z,1.6
2023-01-25T10:05:02.565Z,1.8
2023-01-25T10:10:02.112Z,1.8
2023-01-25T10:15:01.820Z,2.0
2023-01-25T10:20:01.620Z,2.0
2023-01-25T10:25:01.338Z,2.0
2023-01-25T10:30:01.052Z,2.0
2023-01-25T10:35:00.706Z,2.1
2023-01-25T10:40:00.399Z,2.1
2023-01-25T10:45:00.122Z,2.2
2023-01-25T10:49:59.882Z,2.4
2023-01-25T10:54:59.646Z,2.3
2023-01-25T10:59:59.399Z,2.3
2023-01-25T11:04:59.170Z,2.3
2023-01-25T11:09:58.913Z,2.4
2023-01-25T11:14:58.688Z,2.5
2023-01-25T11:24:58.204Z,2.6
2023-01-25T11:29:57.985Z,2.6
2023-01-25T11:34:57.758Z,2.8
2023-01-25T11:39:57.508Z,2.8
2023-01-25T11:44:57.286Z,2.6
2023-01-25T11:49:57.045Z,2.9
2023-01-25T11:54:56.848Z,2.8
2023-01-25T12:04:56.381Z,2.8
2023-01-25T12:09:56.154Z,2.8
2023-01-25T12:14:55.945Z,2.8
2023-01-25T12:19:55.691Z,2.8
2023-01-25T12:24:55.541Z,2.8
2023-01-25T12:29:55.223Z,2.8
2023-01-25T12:34:55.003Z,2.8
2023-01-25T12:39:54.758Z,2.8
2023-01-25T12:44:58.554Z,2.9
2023-01-25T12:54:55.654Z,3.0
2023-01-25T12:59:53.810Z,3.1
2023-01-25T13:04:57.654Z,3.1
2023-01-25T13:09:53.388Z,3.1
2023-01-25T13:14:53.155Z,3.2
2023-01-25T13:19:52.903Z,3.4
2023-01-25T13:24:52.707Z,3.5
2023-01-25T13:29:52.454Z,3.5
2023-01-25T13:34:52.302Z,3.6
2023-01-25T13:39:52.074Z,3.6
2023-01-25T13:44:52.036Z,3.8
2023-01-25T13:49:51.754Z,3.7
2023-01-25T13:54:51.513Z,3.8
2023-01-25T13:59:54.249Z,3.8
2023-01-25T14:04:51.542Z,3.9
2023-01-25T14:09:50.893Z,4.0
2023-01-25T14:14:50.754Z,4.1
2023-01-25T14:19:50.550Z,4.3
2023-01-25T14:24:50.372Z,4.3
2023-01-25T14:29:50.064Z,4.4
2023-01-25T14:34:50.194Z,4.5
2023-01-25T14:39:49.893Z,4.5
2023-01-25T14:44:49.725Z,4.5
2023-01-25T14:54:49.423Z,4.4
2023-01-25T14:59:49.277Z,4.2
2023-01-25T15:04:49.163Z,4.1
2023-01-25T15:09:49.024Z,4.1
2023-01-25T15:14:48.791Z,4.1
2023-01-25T15:19:48.624Z,4.1
2023-01-25T15:24:57.453Z,4.1
2023-01-25T15:29:48.271Z,4.2
2023-01-25T15:34:48.130Z,4.2
2023-01-25T15:39:50.006Z,4.2
2023-01-25T15:44:49.840Z,4.2
2023-01-25T15:49:49.689Z,4.2
2023-01-25T15:54:55.999Z,4.2
2023-01-25T15:59:47.436Z,4.1
2023-01-25T16:04:47.229Z,4.1
2023-01-25T16:09:47.272Z,4.1
2023-01-25T16:14:46.888Z,4.1
2023-01-25T16:19:46.671Z,4.1
2023-01-25T16:24:46.420Z,4.2
2023-01-25T16:29:46.277Z,4.2
2023-01-25T16:34:48.132Z,4.3
2023-01-25T16:39:45.890Z,4.2
2023-01-25T16:44:45.712Z,4.3
2023-01-25T16:49:45.505Z,4.3
2023-01-25T16:54:45.394Z,4.2
2023-01-25T16:59:45.101Z,4.2
2023-01-25T17:04:44.896Z,4.2
2023-01-25T17:09:44.778Z,4.2
2023-01-25T17:14:44.584Z,4.1
2023-01-25T17:19:44.420Z,4.2
2023-01-25T17:24:44.158Z,4.3
2023-01-25T17:29:44.017Z,4.4
2023-01-25T17:34:43.800Z,4.4
2023-01-25T17:39:43.702Z,4.4
2023-01-25T17:44:43.502Z,4.4
2023-01-25T17:49:43.347Z,4.5
2023-01-25T17:54:43.224Z,4.5
2023-01-25T17:59:43.062Z,4.6
2023-01-25T18:04:42.902Z,4.5
2023-01-25T18:09:44.810Z,4.5
2023-01-25T18:14:42.631Z,4.5
2023-01-25T18:19:42.473Z,4.6
2023-01-25T18:24:42.480Z,4.6
2023-01-25T18:29:42.099Z,4.6
2023-01-25T18:34:41.941Z,4.6
2023-01-25T18:39:41.773Z,4.7
2023-01-25T18:44:41.627Z,4.7
2023-01-25T18:49:41.474Z,4.6
2023-01-25T18:54:41.295Z,4.6
2023-01-25T18:59:41.110Z,4.5
2023-01-25T19:04:43.016Z,4.6
2023-01-25T19:14:40.581Z,4.5
2023-01-25T19:19:40.429Z,4.5
2023-01-25T19:24:40.213Z,4.5
2023-01-25T19:29:40.055Z,4.5
2023-01-25T19:34:39.928Z,4.4
2023-01-25T19:39:39.743Z,4.4
2023-01-25T19:44:40.054Z,4.4
2023-01-25T19:49:39.388Z,4.5
2023-01-25T19:54:39.192Z,4.6
2023-01-25T19:59:41.131Z,4.8
2023-01-25T20:04:38.883Z,4.9
2023-01-25T20:09:38.684Z,4.9
2023-01-25T20:14:38.462Z,5.0
2023-01-25T20:19:38.264Z,5.2
2023-01-25T20:24:38.044Z,5.2
2023-01-25T20:29:37.892Z,5.2
2023-01-25T20:34:37.691Z,5.2
2023-01-25T20:39:37.561Z,5.4
2023-01-25T20:44:37.318Z,5.4
2023-01-25T20:49:37.156Z,5.6
2023-01-25T20:54:36.985Z,5.7
2023-01-25T20:59:36.852Z,5.8
2023-01-25T21:04:36.686Z,5.8
2023-01-25T21:09:36.535Z,5.8
2023-01-25T21:14:36.381Z,5.9
2023-01-25T21:19:36.301Z,5.7
2023-01-25T21:24:36.090Z,5.6
2023-01-25T21:29:35.896Z,5.3
2023-01-25T21:34:35.790Z,5.3
2023-01-25T21:39:35.613Z,5.1
2023-01-25T21:44:35.480Z,5.1
2023-01-25T21:49:35.259Z,5.0
2023-01-25T21:54:35.099Z,5.0
2023-01-25T21:59:34.932Z,4.9
2023-01-25T22:04:34.848Z,4.8
2023-01-25T22:09:35.030Z,4.8
2023-01-25T22:14:34.456Z,4.7
2023-01-25T22:19:34.297Z,4.6
2023-01-25T22:24:34.065Z,4.6
2023-01-25T22:29:33.926Z,4.6
2023-01-25T22:34:33.761Z,4.6
2023-01-25T22:39:33.583Z,4.6
2023-01-25T22:44:35.429Z,4.6
2023-01-25T22:49:33.247Z,4.6
2023-01-25T22:54:33.177Z,4.4
2023-01-25T22:59:32.875Z,4.4
2023-01-25T23:04:34.793Z,4.4
2023-01-25T23:09:32.503Z,4.4
2023-01-25T23:19:32.122Z,4.4
2023-01-25T23:24:31.937Z,4.6
2023-01-25T23:29:31.747Z,4.6
2023-01-25T23:34:31.616Z,4.6
2023-01-25T23:39:31.447Z,4.6
2023-01-25T23:44:31.283Z,4.7
2023-01-25T23:49:31.059Z,4.7
2023-01-25T23:54:30.923Z,4.7
2023-01-25T23:59:30.762Z,4.7
